Time;durP1;ratioP1;P1;durP2;ratioP2;P2;SDS_P1;SDS_P2;PMS_P1;PMS_P2;Temp;Humidity;BMP_temperature;BMP_pressure;BME280_temperature;BME280_humidity;BME280_pressure;Samples;Min_cycle;Max_cycle;Signal;HPM_P1;HPM_P2
2022/11/22 00:05:24;;;;;;;11.52;5.35;;;7.40;1.00;;;;;;5019171;28;20202;-85
2022/11/22 00:07:54;;;;;;;7.40;3.90;;;7.40;1.00;;;;;;5032500;28;20175;-84
2022/11/22 00:10:40;;;;;;;9.27;4.45;;;7.40;1.00;;;;;;5030012;28;20226;-84
2022/11/22 00:13:26;;;;;;;11.27;4.50;;;7.50;1.00;;;;;;5017905;28;20216;-83
2022/11/22 00:19:12;;;;;;;10.82;4.30;;;7.50;1.00;;;;;;5021454;28;20191;-83
2022/11/22 00:21:38;;;;;;;5.97;3.90;;;7.60;1.00;;;;;;5018666;28;20202;-85
2022/11/22 00:24:04;;;;;;;9.20;5.33;;;7.60;1.00;;;;;;5032932;28;20174;-84
2022/11/22 00:26:54;;;;;;;8.13;4.77;;;7.60;1.00;;;;;;5022436;28;20257;-83
2022/11/22 00:29:32;;;;;;;9.05;4.78;;;7.70;1.00;;;;;;5008346;28;20448;-85
2022/11/22 00:32:35;;;;;;;8.63;4.22;;;7.70;1.00;;;;;;5032446;28;20529;-84
2022/11/22 00:35:10;;;;;;;9.00;4.32;;;7.70;1.00;;;;;;5015598;28;20220;-84
2022/11/22 00:40:37;;;;;;;5.80;4.00;;;7.80;1.00;;;;;;5017361;28;20212;-84
2022/11/22 00:46:33;;;;;;;10.88;4.10;;;7.80;1.00;;;;;;5023223;28;20206;-84
2022/11/22 00:52:31;;;;;;;5.45;2.97;;;7.80;1.00;;;;;;5022346;28;20197;-84
2022/11/22 00:55:01;;;;;;;11.87;3.67;;;7.80;1.00;;;;;;5012812;28;20194;-84
2022/11/22 01:00:58;;;;;;;6.07;2.75;;;7.70;1.00;;;;;;4993577;28;20347;-83
2022/11/22 01:04:00;;;;;;;7.35;2.75;;;7.70;1.00;;;;;;5010972;28;20174;-84
2022/11/22 01:06:46;;;;;;;;;;;;;;;;;;;;;
2022/11/22 01:09:42;;;;;;;11.38;3.08;;;7.60;1.00;;;;;;5028902;28;20269;-84
2022/11/22 01:12:10;;;;;;;7.72;3.03;;;7.50;1.00;;;;;;5015647;28;20560;-84
2022/11/22 01:14:45;;;;;;;8.52;2.60;;;7.50;1.00;;;;;;5016954;28;20202;-84
2022/11/22 01:17:21;;;;;;;11.85;3.25;;;7.50;1.00;;;;;;5026875;28;20711;-84
2022/11/22 01:20:13;;;;;;;14.93;3.45;;;7.40;1.00;;;;;;5041254;28;20291;-84
2022/11/22 01:29:09;;;;;;;5.97;3.40;;;7.30;1.00;;;;;;5021128;28;20186;-83
2022/11/22 01:31:42;;;;;;;18.38;3.13;;;7.30;1.00;;;;;;5015116;28;20667;-83
2022/11/22 01:34:18;;;;;;;7.53;2.70;;;7.30;1.00;;;;;;5026218;28;20636;-82
2022/11/22 01:36:45;;;;;;;9.55;3.42;;;7.30;1.00;;;;;;5028064;28;20192;-82
2022/11/22 01:39:20;;;;;;;16.33;4.28;;;7.30;1.00;;;;;;5028844;28;20192;-83
2022/11/22 01:41:48;;;;;;;19.58;5.18;;;7.20;1.00;;;;;;5027131;28;20608;-82
2022/11/22 01:44:28;;;;;;;17.08;3.70;;;7.20;1.00;;;;;;5025729;28;20298;-83
2022/11/22 01:47:02;;;;;;;11.77;3.75;;;7.20;1.00;;;;;;5014741;28;20547;-83
2022/11/22 01:49:46;;;;;;;12.60;3.85;;;7.20;1.00;;;;;;5008717;28;20178;-81
2022/11/22 01:52:17;;;;;;;15.85;4.57;;;7.20;1.00;;;;;;5030079;28;20182;-83
2022/11/22 01:54:53;;;;;;;16.95;4.50;;;7.20;1.00;;;;;;5002722;28;20348;-83
2022/11/22 01:57:24;;;;;;;17.33;3.45;;;7.20;1.00;;;;;;5025296;28;20273;-83
2022/11/22 01:59:58;;;;;;;10.35;4.40;;;7.20;1.00;;;;;;5034138;28;20244;-82
2022/11/22 02:02:26;;;;;;;13.43;4.97;;;7.10;1.00;;;;;;5015116;28;20217;-84
2022/11/22 02:04:57;;;;;;;16.90;3.50;;;7.10;1.00;;;;;;5018331;28;20285;-83
2022/11/22 02:07:22;;;;;;;23.90;4.28;;;7.10;1.00;;;;;;5020811;28;20722;-82
2022/11/22 02:09:51;;;;;;;11.43;3.60;;;7.10;1.00;;;;;;5007156;28;20178;-83
2022/11/22 02:12:21;;;;;;;15.00;4.10;;;7.10;1.00;;;;;;5027918;28;20193;-82
2022/11/22 02:14:55;;;;;;;7.90;3.15;;;7.10;1.00;;;;;;5031641;28;20555;-83
2022/11/22 02:17:41;;;;;;;15.52;3.90;;;7.10;1.00;;;;;;5024957;28;20667;-82
2022/11/22 02:20:09;;;;;;;21.17;4.15;;;7.00;1.00;;;;;;5015205;28;20197;-82
2022/11/22 02:22:46;;;;;;;21.02;6.40;;;7.00;1.00;;;;;;5031008;28;20238;-83
2022/11/22 02:25:31;;;;;;;22.63;4.70;;;7.00;1.00;;;;;;5006512;28;20198;-82
2022/11/22 02:28:00;;;;;;;14.95;3.90;;;7.00;1.00;;;;;;5002478;28;20266;-83
2022/11/22 02:30:28;;;;;;;17.90;4.10;;;7.00;1.00;;;;;;5023278;28;20183;-83
2022/11/22 02:32:56;;;;;;;15.40;4.00;;;7.00;1.00;;;;;;5012038;28;20184;-83
2022/11/22 02:35:30;;;;;;;16.85;3.70;;;7.00;1.00;;;;;;5025227;28;20218;-84
2022/11/22 02:38:14;;;;;;;18.95;4.90;;;7.00;1.00;;;;;;5032492;28;20201;-83
2022/11/22 02:40:45;;;;;;;23.38;4.78;;;6.90;1.00;;;;;;5024261;28;20190;-82
2022/11/22 02:43:17;;;;;;;11.10;4.78;;;6.90;1.00;;;;;;5019101;28;20197;-82
2022/11/22 02:45:43;;;;;;;27.20;4.30;;;6.90;1.00;;;;;;5028343;28;20198;-83
2022/11/22 02:48:12;;;;;;;22.00;4.03;;;6.90;1.00;;;;;;5032511;28;20185;-83
2022/11/22 02:50:39;;;;;;;25.77;3.83;;;6.90;1.00;;;;;;5032850;28;21075;-82
2022/11/22 02:53:07;;;;;;;18.42;3.70;;;6.90;1.00;;;;;;5010617;28;20201;-82
2022/11/22 02:55:33;;;;;;;21.50;4.70;;;6.90;1.00;;;;;;5029913;28;20243;-83
2022/11/22 02:57:59;;;;;;;18.52;4.30;;;6.90;1.00;;;;;;4997324;28;20601;-83
2022/11/22 03:00:25;;;;;;;15.07;4.20;;;6.90;1.00;;;;;;5032852;28;20193;-83
2022/11/22 03:02:51;;;;;;;20.27;4.43;;;6.90;1.00;;;;;;5002429;28;20210;-83
2022/11/22 03:05:19;;;;;;;23.47;5.40;;;6.90;1.00;;;;;;5021194;28;20973;-84
2022/11/22 03:07:50;;;;;;;27.85;6.28;;;6.90;1.00;;;;;;5014979;28;20293;-83
2022/11/22 03:10:18;;;;;;;15.98;4.85;;;6.90;1.00;;;;;;5014830;28;20202;-83
2022/11/22 03:12:45;;;;;;;16.20;4.00;;;6.90;1.00;;;;;;5038063;28;20677;-83
2022/11/22 03:15:13;;;;;;;11.55;3.35;;;6.80;1.00;;;;;;5023824;28;20213;-83
2022/11/22 03:17:41;;;;;;;19.95;4.75;;;6.80;1.00;;;;;;5007948;28;20210;-84
2022/11/22 03:20:07;;;;;;;20.50;3.70;;;6.80;1.00;;;;;;5021787;28;20232;-85
2022/11/22 03:22:33;;;;;;;30.17;4.93;;;6.80;1.00;;;;;;5025392;28;20734;-82
2022/11/22 03:24:58;;;;;;;14.87;3.63;;;6.80;1.00;;;;;;5029302;28;20198;-84
2022/11/22 03:27:24;;;;;;;17.13;3.80;;;6.80;1.00;;;;;;5029144;28;20577;-84
2022/11/22 03:29:52;;;;;;;22.23;3.90;;;6.80;1.00;;;;;;5015761;28;20219;-84
2022/11/22 03:32:17;;;;;;;19.90;3.67;;;6.70;1.00;;;;;;5032349;28;20591;-84
2022/11/22 03:34:43;;;;;;;12.57;3.20;;;6.70;1.00;;;;;;5023916;28;20198;-83
2022/11/22 03:37:15;;;;;;;12.20;3.80;;;6.70;1.00;;;;;;5006609;28;20220;-84
2022/11/22 03:39:48;;;;;;;13.30;3.53;;;6.70;1.00;;;;;;5031772;28;20209;-83
2022/11/22 03:42:16;;;;;;;20.90;4.20;;;6.70;1.00;;;;;;5034489;28;20258;-83
2022/11/22 03:44:42;;;;;;;23.73;4.50;;;6.70;1.00;;;;;;5012448;28;20199;-84
2022/11/22 03:47:07;;;;;;;21.70;5.53;;;6.60;1.00;;;;;;5023750;28;20185;-82
2022/11/22 03:49:33;;;;;;;16.20;4.60;;;6.60;1.00;;;;;;5018057;28;20766;-84
2022/11/22 03:51:58;;;;;;;19.07;5.37;;;6.60;1.00;;;;;;5009803;28;20186;-84
2022/11/22 03:54:24;;;;;;;18.87;4.30;;;6.60;1.00;;;;;;5032042;28;20810;-84
2022/11/22 03:56:51;;;;;;;21.93;4.10;;;6.60;1.00;;;;;;5007584;28;20271;-84
2022/11/22 03:59:19;;;;;;;14.07;3.63;;;6.60;1.00;;;;;;5025645;28;20340;-84
2022/11/22 04:01:45;;;;;;;18.90;4.25;;;6.60;1.00;;;;;;5034214;28;20193;-83
2022/11/22 04:04:10;;;;;;;14.00;5.37;;;6.50;1.00;;;;;;5033960;28;20221;-84
2022/11/22 04:06:37;;;;;;;21.67;3.70;;;6.50;1.00;;;;;;5003902;28;20179;-83
2022/11/22 04:09:03;;;;;;;17.30;5.03;;;6.50;1.00;;;;;;5032165;28;20211;-82
2022/11/22 04:11:29;;;;;;;17.10;3.78;;;6.50;1.00;;;;;;5028467;28;20253;-84
2022/11/22 04:16:40;;;;;;;15.20;4.05;;;6.40;1.00;;;;;;5021420;28;20588;-84
2022/11/22 04:19:06;;;;;;;15.63;4.07;;;6.40;1.00;;;;;;5031794;28;20236;-84
2022/11/22 04:21:34;;;;;;;15.73;3.97;;;6.30;1.00;;;;;;5035504;28;20206;-84
2022/11/22 04:26:50;;;;;;;9.00;4.10;;;6.20;1.00;;;;;;5033798;28;20555;-83
2022/11/22 04:29:17;;;;;;;20.40;3.78;;;6.20;1.00;;;;;;5028974;28;20174;-83
2022/11/22 04:34:27;;;;;;;10.32;2.97;;;6.10;1.00;;;;;;5032319;28;20240;-83
2022/11/22 04:36:52;;;;;;;16.07;3.07;;;6.10;1.00;;;;;;5018591;28;20178;-83
2022/11/22 04:39:18;;;;;;;21.33;3.30;;;6.00;1.00;;;;;;5028293;28;20199;-84
2022/11/22 04:41:44;;;;;;;11.63;3.30;;;6.00;1.00;;;;;;5015501;28;20194;-84
2022/11/22 04:46:56;;;;;;;10.30;2.92;;;6.00;1.00;;;;;;5030763;28;20198;-83
2022/11/22 04:49:22;;;;;;;11.83;3.67;;;6.00;1.00;;;;;;5033152;28;20178;-84
2022/11/22 04:54:32;;;;;;;11.43;3.65;;;6.00;1.00;;;;;;5033072;28;20263;-84
2022/11/22 04:56:57;;;;;;;13.23;3.23;;;6.00;1.00;;;;;;5030959;28;20187;-83
2022/11/22 04:59:23;;;;;;;22.60;3.20;;;6.10;1.00;;;;;;5050283;28;20174;-83
2022/11/22 05:01:48;;;;;;;12.87;3.80;;;6.10;1.00;;;;;;5044347;28;20214;-83
2022/11/22 05:04:14;;;;;;;10.67;3.23;;;6.10;1.00;;;;;;5021055;28;20206;-83
2022/11/22 05:06:39;;;;;;;14.10;4.50;;;6.10;1.00;;;;;;5026568;28;20208;-82
2022/11/22 05:09:07;;;;;;;11.13;3.07;;;6.10;1.00;;;;;;5011552;28;20223;-83
2022/11/22 05:11:34;;;;;;;10.38;3.30;;;6.00;1.00;;;;;;5034534;28;20196;-82
2022/11/22 05:13:59;;;;;;;10.45;3.55;;;6.00;1.00;;;;;;5027356;28;20198;-82
2022/11/22 05:16:27;;;;;;;14.57;3.10;;;6.00;1.00;;;;;;5028440;28;20193;-82
2022/11/22 05:18:58;;;;;;;9.43;3.20;;;6.00;1.00;;;;;;5031230;28;20718;-82
2022/11/22 05:21:26;;;;;;;14.85;2.58;;;6.00;1.00;;;;;;5035008;28;20267;-83
2022/11/22 05:23:55;;;;;;;6.07;1.88;;;6.10;1.00;;;;;;5033340;28;20640;-82
2022/11/22 05:26:23;;;;;;;14.05;2.97;;;6.00;1.00;;;;;;5026166;28;20249;-83
2022/11/22 05:28:49;;;;;;;8.82;2.60;;;6.10;1.00;;;;;;5029098;28;20587;-82
2022/11/22 05:31:17;;;;;;;10.63;3.17;;;6.10;1.00;;;;;;5019351;28;20734;-83
2022/11/22 05:33:44;;;;;;;16.58;3.83;;;6.10;1.00;;;;;;5035902;28;20190;-82
2022/11/22 05:36:11;;;;;;;7.68;2.63;;;6.00;1.00;;;;;;5025920;28;20241;-83
2022/11/22 05:38:37;;;;;;;10.68;4.05;;;6.00;1.00;;;;;;5026532;28;20312;-82
2022/11/22 05:41:08;;;;;;;6.10;1.90;;;6.00;1.00;;;;;;5015156;28;20574;-83
2022/11/22 05:43:34;;;;;;;8.18;2.75;;;6.00;1.00;;;;;;5029660;28;20171;-83
2022/11/22 05:46:10;;;;;;;9.82;2.78;;;6.00;1.00;;;;;;5028065;28;20202;-82
2022/11/22 05:48:38;;;;;;;10.32;2.38;;;6.00;1.00;;;;;;5026139;28;20181;-82
2022/11/22 05:51:10;;;;;;;16.65;2.65;;;5.90;1.00;;;;;;5028955;28;20185;-82
2022/11/22 05:53:36;;;;;;;16.70;3.30;;;5.90;1.00;;;;;;5032321;28;20186;-83
2022/11/22 05:56:04;;;;;;;8.30;2.90;;;5.90;1.00;;;;;;5017610;28;20224;-84
2022/11/22 05:58:29;;;;;;;7.07;2.85;;;5.90;1.00;;;;;;5025917;28;20266;-83
2022/11/22 06:00:55;;;;;;;11.97;2.70;;;5.90;1.00;;;;;;5024855;28;20214;-82
2022/11/22 06:03:20;;;;;;;8.33;3.17;;;5.90;1.00;;;;;;5013740;28;20186;-82
2022/11/22 06:05:52;;;;;;;14.67;2.70;;;5.90;1.00;;;;;;5033997;28;20234;-84
2022/11/22 06:08:17;;;;;;;10.15;2.75;;;5.90;1.00;;;;;;5032157;28;20193;-81
2022/11/22 06:10:43;;;;;;;11.07;2.20;;;5.90;1.00;;;;;;5025970;28;20550;-82
2022/11/22 06:13:08;;;;;;;10.57;2.60;;;5.90;1.00;;;;;;5007565;28;20596;-83
2022/11/22 06:15:34;;;;;;;11.53;2.50;;;5.90;1.00;;;;;;5013631;28;20194;-83
2022/11/22 06:18:01;;;;;;;8.70;2.43;;;5.90;1.00;;;;;;5017419;28;20189;-83
2022/11/22 06:20:27;;;;;;;10.73;2.22;;;5.90;1.00;;;;;;5033761;28;20182;-83
2022/11/22 06:22:52;;;;;;;8.50;2.03;;;5.80;1.00;;;;;;5013842;28;20206;-83
2022/11/22 06:25:18;;;;;;;14.13;2.70;;;5.80;1.00;;;;;;5031950;28;20203;-83
2022/11/22 06:27:43;;;;;;;10.37;2.10;;;5.80;1.00;;;;;;5034249;28;20182;-83
2022/11/22 06:30:09;;;;;;;10.83;2.50;;;5.80;1.00;;;;;;5023244;28;20198;-82
2022/11/22 06:32:35;;;;;;;6.50;2.33;;;5.80;1.00;;;;;;5029277;28;20194;-82
2022/11/22 06:35:02;;;;;;;5.80;1.93;;;5.80;1.00;;;;;;5029085;28;20469;-83
2022/11/22 06:37:28;;;;;;;17.00;2.90;;;5.80;1.00;;;;;;5030629;28;20186;-83
2022/11/22 06:39:54;;;;;;;13.52;2.20;;;5.80;1.00;;;;;;5034005;28;20193;-83
2022/11/22 06:42:19;;;;;;;9.27;2.30;;;5.80;1.00;;;;;;5028237;28;20182;-82
2022/11/22 06:44:45;;;;;;;9.03;1.93;;;5.80;1.00;;;;;;5027001;28;20207;-83
2022/11/22 06:47:10;;;;;;;16.73;3.77;;;5.80;1.00;;;;;;5033646;28;20663;-82
2022/11/22 06:49:41;;;;;;;10.13;3.00;;;5.80;1.00;;;;;;5027164;28;20183;-85
2022/11/22 06:52:06;;;;;;;5.10;2.08;;;5.80;1.00;;;;;;5030741;28;20229;-84
2022/11/22 06:54:34;;;;;;;6.07;2.73;;;5.80;1.00;;;;;;5016327;28;20190;-83
2022/11/22 06:57:00;;;;;;;7.63;2.05;;;5.80;1.00;;;;;;5031181;28;20182;-82
2022/11/22 06:59:25;;;;;;;10.90;2.10;;;5.80;1.00;;;;;;5019360;28;20193;-83
2022/11/22 07:01:51;;;;;;;5.50;2.03;;;5.80;1.00;;;;;;5013954;28;20185;-81
2022/11/22 07:04:16;;;;;;;6.37;3.20;;;5.90;1.00;;;;;;5019976;28;20212;-82
2022/11/22 07:06:43;;;;;;;5.20;1.97;;;5.90;1.00;;;;;;5032482;28;20194;-81
2022/11/22 07:09:11;;;;;;;14.48;2.30;;;6.00;1.00;;;;;;5036121;28;20248;-81
2022/11/22 07:11:38;;;;;;;10.00;2.70;;;6.00;99.90;;;;;;5009944;28;20198;-82
2022/11/22 07:14:04;;;;;;;19.55;2.90;;;6.00;99.90;;;;;;5017645;28;20190;-81
2022/11/22 07:16:30;;;;;;;8.95;2.80;;;6.10;99.90;;;;;;5019789;28;20695;-81
2022/11/22 07:18:59;;;;;;;7.97;3.07;;;6.10;99.90;;;;;;5018495;28;20217;-82
2022/11/22 07:21:25;;;;;;;17.75;3.78;;;6.10;99.90;;;;;;5036314;28;20197;-81
2022/11/22 07:23:52;;;;;;;19.02;3.53;;;6.10;99.90;;;;;;5021796;28;20274;-81
2022/11/22 07:26:20;;;;;;;11.70;2.97;;;6.10;99.90;;;;;;5020119;28;20240;-82
2022/11/22 07:28:46;;;;;;;11.32;3.08;;;6.20;99.90;;;;;;5026714;28;20194;-82
2022/11/22 07:31:14;;;;;;;6.65;3.08;;;6.20;99.90;;;;;;5028404;28;20203;-82
2022/11/22 07:33:40;;;;;;;6.15;2.90;;;6.30;99.90;;;;;;5019209;28;20209;-81
2022/11/22 07:36:14;;;;;;;7.28;2.80;;;6.30;99.90;;;;;;5031489;28;20198;-83
2022/11/22 07:38:40;;;;;;;8.00;1.92;;;6.40;97.90;;;;;;5027721;28;20193;-82
2022/11/22 07:41:07;;;;;;;7.43;2.77;;;6.50;21.40;;;;;;5013742;28;20191;-82
2022/11/22 07:43:33;;;;;;;6.07;2.70;;;6.50;1.00;;;;;;5022007;28;20191;-82
2022/11/22 07:45:59;;;;;;;10.87;2.33;;;6.50;1.00;;;;;;5032913;28;20206;-82
2022/11/22 07:48:25;;;;;;;10.48;2.35;;;6.60;1.00;;;;;;5030187;28;20429;-83
2022/11/22 07:50:50;;;;;;;9.87;2.50;;;6.80;1.00;;;;;;5033657;28;20183;-82
2022/11/22 07:53:16;;;;;;;5.73;2.33;;;6.90;1.00;;;;;;5017977;28;20192;-82
2022/11/22 07:55:41;;;;;;;8.83;2.73;;;6.90;99.90;;;;;;5015906;28;20205;-82
2022/11/22 07:58:07;;;;;;;7.10;3.17;;;6.90;99.90;;;;;;5034162;28;20543;-82
2022/11/22 08:00:35;;;;;;;6.77;2.17;;;7.00;99.90;;;;;;5035166;28;20672;-83
2022/11/22 08:03:00;;;;;;;8.00;2.28;;;7.10;1.00;;;;;;5031556;28;20224;-83
2022/11/22 08:05:28;;;;;;;6.20;2.00;;;7.20;1.00;;;;;;5018346;28;20606;-83
2022/11/22 08:07:54;;;;;;;9.88;2.03;;;7.30;99.90;;;;;;5035756;28;20212;-83
2022/11/22 08:10:20;;;;;;;9.23;1.80;;;7.80;1.00;;;;;;5035667;28;20186;-83
2022/11/22 08:12:46;;;;;;;5.20;2.23;;;9.30;99.90;;;;;;5028354;28;20202;-84
2022/11/22 08:15:15;;;;;;;4.93;2.10;;;11.40;99.90;;;;;;5028150;28;20451;-84
2022/11/22 08:17:41;;;;;;;7.40;1.60;;;13.30;1.00;;;;;;5030756;28;20422;-83
2022/11/22 08:20:08;;;;;;;5.87;1.90;;;14.90;1.00;;;;;;5012996;28;20449;-83
2022/11/22 08:22:39;;;;;;;5.70;1.90;;;16.30;1.00;;;;;;5021525;28;20552;-84
2022/11/22 08:25:11;;;;;;;6.63;2.00;;;17.40;1.00;;;;;;5015635;28;20447;-83
2022/11/22 08:27:40;;;;;;;6.17;2.30;;;18.40;99.90;;;;;;5019313;28;20954;-83
2022/11/22 08:30:06;;;;;;;6.80;3.27;;;19.50;99.90;;;;;;5038045;28;20968;-84
2022/11/22 08:32:32;;;;;;;7.17;3.13;;;20.60;99.90;;;;;;5023016;28;20461;-84
2022/11/22 08:34:58;;;;;;;6.33;3.23;;;20.50;99.90;;;;;;5031605;28;20513;-84
2022/11/22 08:37:23;;;;;;;11.53;3.70;;;19.00;99.90;;;;;;5050645;28;20348;-82
2022/11/22 08:39:49;;;;;;;7.57;4.00;;;17.60;99.90;;;;;;5054051;28;20193;-84
2022/11/22 08:42:14;;;;;;;8.60;4.10;;;16.20;99.90;;;;;;5027621;28;20612;-82
2022/11/22 08:44:42;;;;;;;8.50;3.20;;;15.40;99.90;;;;;;5016922;28;20213;-82
2022/11/22 08:47:08;;;;;;;6.87;2.47;;;14.90;99.90;;;;;;5017112;28;20570;-82
2022/11/22 08:49:33;;;;;;;5.00;1.77;;;14.80;99.90;;;;;;5034460;28;20444;-83
2022/11/22 08:51:58;;;;;;;4.67;2.00;;;14.70;99.90;;;;;;5032737;28;20201;-82
2022/11/22 08:54:24;;;;;;;10.27;2.57;;;15.10;99.90;;;;;;5026680;28;20209;-82
2022/11/22 08:56:57;;;;;;;4.50;1.53;;;14.80;99.90;;;;;;5033990;28;20183;-84
2022/11/22 08:59:22;;;;;;;5.47;1.70;;;14.50;99.90;;;;;;5033967;28;20247;-83
2022/11/22 09:01:48;;;;;;;8.10;2.03;;;13.90;99.90;;;;;;5036059;28;20422;-83
2022/11/22 09:04:15;;;;;;;6.00;1.53;;;13.30;99.90;;;;;;5031822;28;20230;-83
2022/11/22 09:06:40;;;;;;;4.20;1.33;;;13.00;99.90;;;;;;5034843;28;20422;-83
2022/11/22 09:09:06;;;;;;;6.90;1.50;;;13.10;99.90;;;;;;5025685;28;20186;-83
2022/11/22 09:11:31;;;;;;;3.90;1.43;;;13.00;99.90;;;;;;5016714;28;20233;-83
2022/11/22 09:13:57;;;;;;;5.03;1.60;;;12.70;99.90;;;;;;5024679;28;20541;-83
2022/11/22 09:16:22;;;;;;;5.80;1.63;;;12.30;99.90;;;;;;5016734;28;20654;-83
2022/11/22 09:18:48;;;;;;;4.37;1.77;;;12.00;99.90;;;;;;5028282;28;20187;-83
2022/11/22 09:21:17;;;;;;;5.00;1.70;;;11.70;99.90;;;;;;5033672;28;20201;-84
2022/11/22 09:23:47;;;;;;;4.80;2.00;;;11.60;99.90;;;;;;4995944;28;20179;-83
2022/11/22 09:26:17;;;;;;;3.53;1.63;;;11.80;99.90;;;;;;5008127;28;20980;-83
2022/11/22 09:28:44;;;;;;;3.03;1.00;;;11.70;99.90;;;;;;5030858;28;20445;-83
2022/11/22 09:31:15;;;;;;;5.43;2.10;;;11.50;99.90;;;;;;5012647;28;20467;-83
2022/11/22 09:33:48;;;;;;;4.47;1.60;;;11.40;99.90;;;;;;5000656;28;20441;-83
2022/11/22 09:36:21;;;;;;;4.40;1.93;;;11.30;99.90;;;;;;5012974;28;20444;-83
2022/11/22 09:38:47;;;;;;;3.93;1.50;;;11.50;99.90;;;;;;5003359;28;20538;-83
2022/11/22 09:41:15;;;;;;;4.50;1.53;;;11.60;99.90;;;;;;5024445;28;20448;-82
2022/11/22 09:43:50;;;;;;;5.10;1.33;;;11.80;99.90;;;;;;5006495;28;20194;-83
2022/11/22 09:46:30;;;;;;;5.63;2.50;;;12.10;99.90;;;;;;5024636;28;20456;-82
2022/11/22 09:49:16;;;;;;;5.17;1.63;;;12.60;99.90;;;;;;5023077;28;20519;-83
2022/11/22 09:52:08;;;;;;;2.80;1.10;;;12.80;99.90;;;;;;5024769;28;20469;-83
2022/11/22 09:55:04;;;;;;;3.80;1.20;;;13.00;99.90;;;;;;5025329;28;20456;-82
2022/11/22 09:58:03;;;;;;;3.60;1.37;;;12.90;99.90;;;;;;5023744;28;20494;-84
2022/11/22 10:00:29;;;;;;;4.13;1.30;;;12.80;99.90;;;;;;5026045;28;21880;-83
2022/11/22 10:03:06;;;;;;;6.13;1.20;;;12.70;99.90;;;;;;5025085;28;20532;-83
2022/11/22 10:05:59;;;;;;;1.27;0.80;;;12.50;99.90;;;;;;5029739;28;20989;-83
2022/11/22 10:08:46;;;;;;;3.13;1.00;;;12.30;99.90;;;;;;5027743;28;20451;-83
2022/11/22 10:11:29;;;;;;;5.73;1.00;;;12.20;99.90;;;;;;5024260;28;20460;-82
2022/11/22 10:13:59;;;;;;;2.37;1.00;;;12.10;99.90;;;;;;5027786;28;20918;-83
2022/11/22 10:16:33;;;;;;;4.10;1.33;;;12.00;99.90;;;;;;5023406;28;20437;-82
2022/11/22 10:19:03;;;;;;;2.90;1.20;;;12.00;99.90;;;;;;5028532;28;20429;-82
2022/11/22 10:21:28;;;;;;;2.60;1.37;;;12.00;99.90;;;;;;5024825;28;20443;-81
2022/11/22 10:23:54;;;;;;;2.30;1.10;;;12.00;99.90;;;;;;5011798;28;20804;-81
2022/11/22 10:26:22;;;;;;;4.27;1.10;;;12.10;99.90;;;;;;5029193;28;20202;-82
2022/11/22 10:29:00;;;;;;;3.10;1.30;;;12.20;99.90;;;;;;5029053;28;20197;-82
2022/11/22 10:31:42;;;;;;;2.67;1.20;;;12.40;99.90;;;;;;5023993;28;20476;-82
2022/11/22 10:34:33;;;;;;;8.10;2.90;;;12.60;99.90;;;;;;5026398;28;20453;-82
2022/11/22 10:37:27;;;;;;;2.77;2.07;;;12.70;99.90;;;;;;5025582;28;20522;-82
2022/11/22 10:40:30;;;;;;;4.50;1.43;;;12.80;99.90;;;;;;5028534;28;20460;-81
2022/11/22 10:43:05;;;;;;;4.50;1.60;;;12.90;99.90;;;;;;5014947;28;20931;-83
2022/11/22 10:45:38;;;;;;;2.20;1.23;;;12.80;99.90;;;;;;5024566;28;20456;-83
2022/11/22 10:48:10;;;;;;;4.47;1.60;;;12.70;99.90;;;;;;5028023;28;20424;-82
2022/11/22 10:51:17;;;;;;;3.00;1.77;;;12.70;99.90;;;;;;5030061;28;20508;-83
2022/11/22 10:54:07;;;;;;;3.40;1.13;;;12.70;99.90;;;;;;5032200;28;20957;-83
2022/11/22 10:56:36;;;;;;;3.77;1.70;;;12.70;99.90;;;;;;5030360;28;20463;-81
2022/11/22 10:59:23;;;;;;;3.03;1.60;;;12.90;99.90;;;;;;5026366;28;20513;-84
2022/11/22 11:02:33;;;;;;;2.80;1.20;;;13.10;99.90;;;;;;5034212;28;20449;-82
2022/11/22 11:05:02;;;;;;;8.70;1.60;;;13.20;99.90;;;;;;5026020;28;20446;-82
2022/11/22 11:07:28;;;;;;;3.83;1.00;;;13.50;99.90;;;;;;5035696;28;20416;-82
2022/11/22 11:10:01;;;;;;;2.93;0.80;;;13.70;99.90;;;;;;5027952;28;20439;-83
2022/11/22 11:12:41;;;;;;;1.70;0.80;;;13.80;99.90;;;;;;5028520;28;20271;-84
2022/11/22 11:15:26;;;;;;;1.73;0.80;;;13.60;99.90;;;;;;5023279;28;20961;-83
2022/11/22 11:18:01;;;;;;;1.40;0.70;;;13.50;99.90;;;;;;5031000;28;20440;-84
2022/11/22 11:20:32;;;;;;;2.70;1.00;;;13.20;99.90;;;;;;5029438;28;20476;-84
2022/11/22 11:22:57;;;;;;;1.67;0.80;;;13.10;99.90;;;;;;5021410;28;20436;-82
2022/11/22 11:25:32;;;;;;;1.00;0.60;;;13.00;99.90;;;;;;5023156;28;20548;-83
2022/11/22 11:28:05;;;;;;;1.20;0.70;;;12.80;99.90;;;;;;5008968;28;20281;-82
2022/11/22 11:30:48;;;;;;;1.10;0.60;;;12.50;99.90;;;;;;5010044;28;20446;-83
2022/11/22 11:33:20;;;;;;;2.20;0.60;;;12.50;99.90;;;;;;5022586;28;20492;-82
2022/11/22 11:35:46;;;;;;;1.00;0.57;;;12.50;99.90;;;;;;5028201;28;20466;-82
2022/11/22 11:38:35;;;;;;;1.67;0.70;;;12.50;99.90;;;;;;5009454;28;20448;-83
2022/11/22 11:41:25;;;;;;;1.50;0.70;;;12.40;99.90;;;;;;5016214;28;20467;-84
2022/11/22 11:43:52;;;;;;;1.97;0.70;;;12.40;99.90;;;;;;5013687;28;20441;-83
2022/11/22 11:46:24;;;;;;;1.00;0.50;;;12.40;99.90;;;;;;5010818;28;20548;-84
2022/11/22 11:48:52;;;;;;;1.10;0.83;;;12.30;99.90;;;;;;5004656;28;20430;-83
2022/11/22 11:51:23;;;;;;;1.00;0.60;;;12.30;99.90;;;;;;5032601;28;20473;-83
2022/11/22 11:54:08;;;;;;;1.40;0.60;;;12.20;99.90;;;;;;5030805;28;20434;-84
2022/11/22 11:56:52;;;;;;;1.50;0.60;;;12.00;99.90;;;;;;5027497;28;20445;-83
2022/11/22 11:59:24;;;;;;;0.90;0.53;;;11.90;99.90;;;;;;5016181;28;20430;-82
2022/11/22 12:01:57;;;;;;;1.17;0.60;;;11.70;99.90;;;;;;5022559;28;20448;-84
2022/11/22 12:04:29;;;;;;;1.70;0.73;;;11.70;99.90;;;;;;5027528;28;20448;-80
2022/11/22 12:07:25;;;;;;;1.30;0.60;;;11.60;99.90;;;;;;5027523;28;20444;-85
2022/11/22 12:09:53;;;;;;;1.30;0.60;;;11.50;99.90;;;;;;5009477;28;21035;-83
2022/11/22 12:12:30;;;;;;;2.60;0.60;;;11.50;99.90;;;;;;5020646;28;20517;-83
2022/11/22 12:15:26;;;;;;;1.40;0.97;;;11.50;99.90;;;;;;5030755;28;20507;-84
2022/11/22 12:17:57;;;;;;;1.10;0.70;;;11.50;99.90;;;;;;5015587;28;20425;-83
2022/11/22 12:20:50;;;;;;;0.87;0.53;;;11.40;99.90;;;;;;5051451;28;20448;-83
2022/11/22 12:23:24;;;;;;;1.00;0.70;;;11.40;99.90;;;;;;5037702;28;20499;-83
2022/11/22 12:25:54;;;;;;;2.10;1.60;;;11.30;99.90;;;;;;5024123;28;20831;-83
2022/11/22 12:28:22;;;;;;;2.10;1.17;;;11.30;99.90;;;;;;5000333;28;20425;-83
2022/11/22 12:30:55;;;;;;;1.10;0.70;;;11.30;99.90;;;;;;5004056;28;20508;-83
2022/11/22 12:33:31;;;;;;;1.40;0.90;;;11.20;99.90;;;;;;5023848;28;20567;-83
2022/11/22 12:35:57;;;;;;;1.60;0.93;;;11.10;99.90;;;;;;5011907;28;20459;-80
2022/11/22 12:38:30;;;;;;;1.60;1.00;;;11.10;99.90;;;;;;5017308;28;20989;-83
2022/11/22 12:40:59;;;;;;;1.30;0.80;;;11.00;99.90;;;;;;5029834;28;20439;-83
2022/11/22 12:43:42;;;;;;;1.13;0.63;;;11.00;99.90;;;;;;5029407;28;20425;-82
2022/11/22 12:46:18;;;;;;;2.80;1.00;;;11.00;99.90;;;;;;5027715;28;20452;-83
2022/11/22 12:48:48;;;;;;;2.20;1.30;;;11.00;99.90;;;;;;5018958;28;20425;-82
2022/11/22 12:51:33;;;;;;;1.10;0.70;;;11.00;99.90;;;;;;5006980;28;20462;-82
2022/11/22 12:54:07;;;;;;;1.93;1.20;;;11.00;99.90;;;;;;5003858;28;20438;-82
2022/11/22 12:56:52;;;;;;;1.30;0.90;;;10.90;99.90;;;;;;5022583;28;20425;-81
2022/11/22 12:59:34;;;;;;;1.70;1.10;;;10.80;99.90;;;;;;5021949;28;20436;-82
2022/11/22 13:02:25;;;;;;;3.17;0.80;;;10.80;99.90;;;;;;5018415;28;20441;-82
2022/11/22 13:04:57;;;;;;;3.80;0.70;;;10.80;99.90;;;;;;5020707;28;20457;-82
2022/11/22 13:07:28;;;;;;;1.23;0.87;;;10.70;99.90;;;;;;5025730;28;20468;-82
2022/11/22 13:10:05;;;;;;;1.00;0.63;;;10.60;99.90;;;;;;5016417;28;20456;-81
2022/11/22 13:12:35;;;;;;;1.53;0.60;;;10.60;99.90;;;;;;5026157;28;20992;-83
2022/11/22 13:15:01;;;;;;;0.90;0.57;;;10.70;99.90;;;;;;5023097;28;20454;-82
2022/11/22 13:17:35;;;;;;;4.60;2.33;;;10.70;99.90;;;;;;5007618;28;20475;-82
2022/11/22 13:20:18;;;;;;;6.80;4.23;;;10.80;99.90;;;;;;5009342;28;20445;-83
2022/11/22 13:22:56;;;;;;;3.77;2.63;;;10.80;99.90;;;;;;5028087;28;20969;-82
2022/11/22 13:25:45;;;;;;;3.90;2.50;;;10.70;99.90;;;;;;5024662;28;20492;-82
2022/11/22 13:28:17;;;;;;;3.33;2.80;;;10.60;99.90;;;;;;5022974;28;20452;-82
2022/11/22 13:31:11;;;;;;;7.20;3.93;;;10.60;99.90;;;;;;5028772;28;20444;-82
2022/11/22 13:33:42;;;;;;;2.50;2.30;;;10.60;99.90;;;;;;5028988;28;20489;-82
2022/11/22 13:36:26;;;;;;;2.33;1.63;;;10.60;99.90;;;;;;5009772;28;20866;-82
2022/11/22 13:38:57;;;;;;;1.43;1.33;;;10.50;99.90;;;;;;5034265;28;20450;-81
2022/11/22 13:41:41;;;;;;;2.10;1.40;;;10.50;99.90;;;;;;5032468;28;20505;-82
2022/11/22 13:44:23;;;;;;;2.20;1.60;;;10.40;99.90;;;;;;5011049;28;20475;-82
2022/11/22 13:46:48;;;;;;;6.43;2.47;;;10.40;1.00;;;;;;5033556;28;21824;-84
2022/11/22 13:49:31;;;;;;;7.93;3.40;;;10.40;1.00;;;;;;5026083;28;20551;-82
2022/11/22 13:51:59;;;;;;;2.07;1.70;;;10.40;1.00;;;;;;5022544;28;20805;-83
2022/11/22 13:54:36;;;;;;;4.17;1.57;;;10.40;1.00;;;;;;5029034;28;20519;-80
2022/11/22 13:57:23;;;;;;;3.93;1.50;;;10.40;1.00;;;;;;5032139;28;20436;-81
2022/11/22 14:00:14;;;;;;;4.50;1.30;;;10.40;1.00;;;;;;5027615;28;20437;-82